Time;durP1;ratioP1;P1;durP2;ratioP2;P2;SDS_P1;SDS_P2;PMS_P1;PMS_P2;Temp;Humidity;BMP_temperature;BMP_pressure;BME280_temperature;BME280_humidity;BME280_pressure;Samples;Min_cycle;Max_cycle;Signal;HPM_P1;HPM_P2
2023/11/26 00:00:17;;;;;;;18.98;5.35;;;5.30;99.90;;;;;;5032263;28;20021;-60
2023/11/26 00:02:44;;;;;;;24.13;5.22;;;5.30;99.90;;;;;;5032064;28;20026;-61
2023/11/26 00:05:09;;;;;;;16.60;5.18;;;5.30;99.90;;;;;;5026946;28;20029;-61
2023/11/26 00:07:35;;;;;;;23.05;6.03;;;5.30;99.90;;;;;;5024088;28;20029;-61
2023/11/26 00:10:01;;;;;;;18.27;5.65;;;5.30;99.90;;;;;;5037374;28;20040;-60
2023/11/26 00:12:26;;;;;;;27.40;6.10;;;5.30;99.90;;;;;;5027895;28;20088;-60
2023/11/26 00:14:52;;;;;;;24.33;7.30;;;5.30;99.90;;;;;;5030962;28;20021;-61
2023/11/26 00:17:22;;;;;;;26.30;6.47;;;5.30;99.90;;;;;;5031091;28;20029;-63
2023/11/26 00:19:48;;;;;;;20.70;7.35;;;5.20;99.90;;;;;;5031564;28;20010;-59
2023/11/26 00:22:14;;;;;;;24.20;6.88;;;5.30;99.90;;;;;;5026360;28;20479;-60
2023/11/26 00:24:39;;;;;;;24.73;7.50;;;5.30;99.90;;;;;;5029682;28;20053;-60
2023/11/26 00:27:05;;;;;;;31.63;8.90;;;5.20;99.90;;;;;;5030487;28;20026;-62
2023/11/26 00:29:40;;;;;;;20.73;7.07;;;5.20;99.90;;;;;;5032355;28;20040;-62
2023/11/26 00:32:06;;;;;;;34.10;6.68;;;5.20;99.90;;;;;;5026460;28;20025;-62
2023/11/26 00:34:31;;;;;;;31.05;7.70;;;5.10;99.90;;;;;;5028813;28;20038;-62
2023/11/26 00:36:57;;;;;;;30.35;6.93;;;5.10;99.90;;;;;;5032757;28;20041;-62
2023/11/26 00:39:24;;;;;;;24.52;6.38;;;5.10;99.90;;;;;;5029906;28;20488;-61
2023/11/26 00:41:49;;;;;;;21.85;7.68;;;5.10;99.90;;;;;;5031688;28;20039;-59
2023/11/26 00:44:15;;;;;;;24.80;7.25;;;5.20;99.90;;;;;;5030988;28;20037;-62
2023/11/26 00:46:40;;;;;;;27.60;6.55;;;5.20;99.90;;;;;;5030207;28;20061;-60
2023/11/26 00:49:06;;;;;;;34.70;6.35;;;5.20;99.90;;;;;;5031572;28;20114;-62
2023/11/26 00:51:32;;;;;;;20.40;5.65;;;5.20;99.90;;;;;;5031113;28;20040;-61
2023/11/26 00:53:57;;;;;;;24.38;5.53;;;5.10;99.90;;;;;;5030899;28;20022;-62
2023/11/26 00:56:23;;;;;;;29.27;6.82;;;5.10;99.90;;;;;;5026170;28;20054;-61
2023/11/26 00:58:50;;;;;;;30.75;6.45;;;5.10;99.90;;;;;;5031395;28;20025;-61
2023/11/26 01:01:16;;;;;;;21.63;5.45;;;5.10;99.90;;;;;;5032132;28;20080;-62
2023/11/26 01:03:41;;;;;;;16.30;5.22;;;5.10;99.90;;;;;;5029384;28;20452;-60
2023/11/26 01:06:07;;;;;;;28.88;5.25;;;5.10;99.90;;;;;;5030647;28;20100;-62
2023/11/26 01:08:32;;;;;;;21.85;5.22;;;5.10;99.90;;;;;;5029419;28;20068;-62
2023/11/26 01:10:58;;;;;;;17.35;4.60;;;5.10;99.90;;;;;;5028532;28;20483;-60
2023/11/26 01:13:24;;;;;;;26.35;5.20;;;5.10;99.90;;;;;;5026781;28;20111;-59
2023/11/26 01:15:49;;;;;;;15.13;4.60;;;5.20;99.90;;;;;;5027908;28;20152;-59
2023/11/26 01:18:15;;;;;;;18.13;3.95;;;5.20;99.90;;;;;;5028124;28;20014;-61
2023/11/26 01:20:40;;;;;;;22.05;4.85;;;5.20;99.90;;;;;;5031047;28;20048;-60
2023/11/26 01:23:06;;;;;;;24.38;4.85;;;5.20;99.90;;;;;;5026867;28;20017;-61
2023/11/26 01:25:31;;;;;;;25.23;4.05;;;5.20;99.90;;;;;;5033025;28;20492;-62
2023/11/26 01:27:57;;;;;;;16.50;3.65;;;5.10;99.90;;;;;;5026019;28;20029;-62
2023/11/26 01:30:22;;;;;;;16.85;4.20;;;5.20;99.90;;;;;;5029142;28;20026;-62
2023/11/26 01:32:48;;;;;;;20.67;3.97;;;5.20;99.90;;;;;;5033519;28;20022;-62
2023/11/26 01:35:14;;;;;;;23.00;5.50;;;5.20;99.90;;;;;;5029354;28;20495;-60
2023/11/26 01:37:39;;;;;;;24.60;4.80;;;5.20;99.90;;;;;;5026942;28;20112;-61
2023/11/26 01:40:09;;;;;;;17.77;4.43;;;5.20;99.90;;;;;;5029691;28;20025;-59
2023/11/26 01:42:34;;;;;;;17.02;5.78;;;5.10;99.90;;;;;;5028815;28;20403;-61
2023/11/26 01:45:00;;;;;;;15.57;4.55;;;5.20;99.90;;;;;;5026436;28;20034;-60
2023/11/26 01:47:25;;;;;;;17.08;4.10;;;5.20;99.90;;;;;;5031882;28;20159;-59
2023/11/26 01:49:51;;;;;;;14.80;4.75;;;5.30;99.90;;;;;;5024522;28;20087;-60
2023/11/26 01:52:17;;;;;;;34.03;4.85;;;5.30;99.90;;;;;;5030809;28;20029;-60
2023/11/26 01:54:43;;;;;;;20.00;4.28;;;5.30;99.90;;;;;;5029180;28;20448;-61
2023/11/26 01:57:11;;;;;;;22.75;7.63;;;5.30;99.90;;;;;;5032329;28;20048;-61
2023/11/26 01:59:38;;;;;;;22.08;5.25;;;5.20;99.90;;;;;;5031060;28;20040;-61
2023/11/26 02:02:04;;;;;;;12.88;3.88;;;5.30;99.90;;;;;;5031879;28;20033;-61
2023/11/26 02:04:30;;;;;;;15.93;4.03;;;5.30;99.90;;;;;;5030134;28;20491;-62
2023/11/26 02:06:56;;;;;;;23.33;3.80;;;5.30;99.90;;;;;;5031398;28;20029;-61
2023/11/26 02:09:22;;;;;;;22.70;4.68;;;5.20;99.90;;;;;;5027388;28;20118;-60
2023/11/26 02:11:48;;;;;;;25.77;4.82;;;5.10;99.90;;;;;;5033409;28;20499;-60
2023/11/26 02:14:14;;;;;;;12.15;3.92;;;5.20;99.90;;;;;;5023246;28;20030;-60
2023/11/26 02:16:40;;;;;;;18.38;4.53;;;5.20;99.90;;;;;;5029364;28;20078;-62
2023/11/26 02:19:38;;;;;;;18.95;4.30;;;5.20;99.90;;;;;;5028798;28;20021;-60
2023/11/26 02:22:10;;;;;;;13.50;4.53;;;5.20;99.90;;;;;;5030622;28;20017;-60
2023/11/26 02:24:46;;;;;;;23.98;5.15;;;5.10;99.90;;;;;;5030828;28;20071;-60
2023/11/26 02:27:12;;;;;;;23.98;4.43;;;5.10;99.90;;;;;;5024308;28;20083;-59
2023/11/26 02:29:41;;;;;;;19.27;4.28;;;5.10;99.90;;;;;;5030743;28;20048;-58
2023/11/26 02:32:10;;;;;;;17.58;4.38;;;5.10;99.90;;;;;;5027520;28;20021;-59
2023/11/26 02:34:36;;;;;;;35.40;5.05;;;5.10;99.90;;;;;;5028593;28;20396;-58
2023/11/26 02:37:02;;;;;;;19.55;4.72;;;5.10;99.90;;;;;;5032418;28;20052;-57
2023/11/26 02:39:28;;;;;;;28.55;5.68;;;5.10;99.90;;;;;;5027442;28;20033;-58
2023/11/26 02:42:00;;;;;;;23.23;5.50;;;5.10;99.90;;;;;;5026341;28;20499;-62
2023/11/26 02:44:26;;;;;;;25.95;4.75;;;5.00;99.90;;;;;;5029097;28;21528;-59
2023/11/26 02:46:52;;;;;;;21.02;6.10;;;5.00;99.90;;;;;;5028455;28;20064;-60
2023/11/26 02:49:17;;;;;;;22.08;6.50;;;5.00;99.90;;;;;;5032084;28;20024;-60
2023/11/26 02:51:43;;;;;;;26.27;7.20;;;5.00;99.90;;;;;;5029308;28;20021;-60
2023/11/26 02:54:09;;;;;;;24.00;6.88;;;5.00;99.90;;;;;;5031518;28;20479;-60
2023/11/26 02:56:35;;;;;;;30.25;7.40;;;4.90;99.90;;;;;;5025000;28;20022;-61
2023/11/26 02:59:00;;;;;;;22.88;7.43;;;5.00;99.90;;;;;;5025245;28;20024;-59
2023/11/26 03:01:28;;;;;;;33.60;7.57;;;5.00;99.90;;;;;;5031387;28;20467;-61
2023/11/26 03:03:55;;;;;;;24.92;8.10;;;5.10;99.90;;;;;;5029254;28;20041;-61
2023/11/26 03:06:26;;;;;;;22.70;10.00;;;5.10;99.90;;;;;;5028154;28;20152;-61
2023/11/26 03:14:24;;;;;;;31.05;7.97;;;5.00;99.90;;;;;;5028024;28;20045;-60
2023/11/26 03:16:50;;;;;;;25.80;8.63;;;4.90;99.90;;;;;;5024297;28;20059;-60
2023/11/26 03:19:15;;;;;;;26.70;8.35;;;4.90;99.90;;;;;;5029571;28;20026;-61
2023/11/26 03:21:44;;;;;;;22.15;8.38;;;4.90;99.90;;;;;;5027735;28;20040;-60
2023/11/26 03:24:09;;;;;;;23.85;8.45;;;4.90;99.90;;;;;;5029289;28;20100;-61
2023/11/26 03:26:36;;;;;;;25.05;9.02;;;4.90;99.90;;;;;;5026613;28;20102;-61
2023/11/26 03:29:02;;;;;;;24.45;7.55;;;4.80;99.90;;;;;;5026028;28;20044;-61
2023/11/26 03:31:30;;;;;;;26.30;8.50;;;4.80;99.90;;;;;;5029552;28;20025;-60
2023/11/26 03:33:57;;;;;;;32.03;8.60;;;4.80;99.90;;;;;;5030002;28;20087;-60
2023/11/26 03:36:22;;;;;;;35.97;10.68;;;4.80;99.90;;;;;;5026791;28;20026;-61
2023/11/26 03:38:48;;;;;;;35.08;9.98;;;4.70;99.90;;;;;;5026680;28;20101;-60
2023/11/26 03:41:14;;;;;;;36.38;9.75;;;4.70;99.90;;;;;;5028602;28;20021;-61
2023/11/26 03:43:39;;;;;;;36.28;8.82;;;4.50;99.90;;;;;;5033330;28;20112;-61
2023/11/26 03:46:06;;;;;;;29.08;10.32;;;4.50;99.90;;;;;;5032624;28;20384;-58
2023/11/26 03:48:32;;;;;;;36.55;11.25;;;4.50;99.90;;;;;;5030958;28;20515;-61
2023/11/26 03:50:58;;;;;;;28.95;10.38;;;4.50;99.90;;;;;;5032669;28;20033;-61
2023/11/26 03:53:24;;;;;;;33.17;10.35;;;4.40;99.90;;;;;;5034499;28;20435;-61
2023/11/26 03:55:49;;;;;;;26.02;10.85;;;4.50;99.90;;;;;;5033549;28;20042;-61
2023/11/26 03:58:16;;;;;;;32.92;12.30;;;4.40;99.90;;;;;;5033459;28;20013;-59
2023/11/26 04:00:41;;;;;;;27.33;13.45;;;4.40;99.90;;;;;;5035815;28;20079;-58
2023/11/26 04:03:07;;;;;;;29.40;12.88;;;4.40;99.90;;;;;;5031135;28;20506;-60
2023/11/26 04:05:33;;;;;;;37.17;14.55;;;4.40;99.90;;;;;;5030313;28;20116;-59
2023/11/26 04:07:58;;;;;;;39.05;14.02;;;4.20;99.90;;;;;;5031861;28;20135;-60
2023/11/26 04:10:24;;;;;;;32.78;13.02;;;4.20;99.90;;;;;;5031770;28;20107;-60
2023/11/26 04:12:50;;;;;;;36.92;15.13;;;4.20;99.90;;;;;;5029866;28;20041;-61
2023/11/26 04:15:22;;;;;;;39.53;12.77;;;4.20;99.90;;;;;;5033274;28;20026;-60
2023/11/26 04:17:48;;;;;;;32.38;13.57;;;4.10;99.90;;;;;;5026251;28;20029;-60
2023/11/26 04:20:13;;;;;;;38.20;13.90;;;4.00;99.90;;;;;;5029870;28;20523;-59
2023/11/26 04:22:39;;;;;;;47.38;16.20;;;4.00;99.90;;;;;;5030080;28;20108;-61
2023/11/26 04:25:05;;;;;;;46.40;15.82;;;4.10;99.90;;;;;;5028399;28;20060;-58
2023/11/26 04:27:31;;;;;;;48.25;15.45;;;4.10;99.90;;;;;;5032722;28;20082;-61
2023/11/26 04:29:58;;;;;;;39.15;17.50;;;4.00;99.90;;;;;;5030823;28;20032;-61
2023/11/26 04:32:23;;;;;;;43.15;15.70;;;3.80;99.90;;;;;;5030599;28;20021;-60
2023/11/26 04:34:49;;;;;;;40.50;15.30;;;3.80;99.90;;;;;;5031153;28;20036;-60
2023/11/26 04:37:14;;;;;;;43.83;15.15;;;3.80;99.90;;;;;;5029483;28;20373;-60
2023/11/26 04:39:40;;;;;;;42.28;14.82;;;3.80;99.90;;;;;;5029802;28;20021;-60
2023/11/26 04:42:07;;;;;;;41.08;15.02;;;3.80;99.90;;;;;;5032033;28;20108;-60
2023/11/26 04:44:32;;;;;;;38.28;13.90;;;3.70;99.90;;;;;;5031116;28;20082;-59
2023/11/26 04:46:59;;;;;;;39.38;15.20;;;3.80;99.90;;;;;;5031780;28;20442;-61
2023/11/26 04:49:25;;;;;;;44.38;16.65;;;3.80;99.90;;;;;;5029167;28;20038;-59
2023/11/26 04:51:51;;;;;;;38.70;14.25;;;3.80;99.90;;;;;;5031433;28;20029;-62
2023/11/26 04:54:16;;;;;;;32.90;13.70;;;3.70;99.90;;;;;;5028273;28;20112;-61
2023/11/26 04:56:42;;;;;;;32.53;14.43;;;3.80;99.90;;;;;;5031279;28;20387;-60
2023/11/26 04:59:08;;;;;;;34.03;13.73;;;3.80;99.90;;;;;;5032058;28;20571;-59
2023/11/26 05:01:38;;;;;;;35.40;14.45;;;3.80;99.90;;;;;;5030184;28;20021;-59
2023/11/26 05:04:04;;;;;;;41.35;14.93;;;3.80;99.90;;;;;;5027894;28;20036;-59
2023/11/26 05:06:30;;;;;;;28.45;13.38;;;3.90;99.90;;;;;;5026991;28;20244;-59
2023/11/26 05:08:55;;;;;;;33.45;14.00;;;3.80;99.90;;;;;;5029448;28;20578;-59
2023/11/26 05:11:21;;;;;;;42.25;16.48;;;3.80;99.90;;;;;;5030915;28;20033;-62
2023/11/26 05:13:48;;;;;;;39.88;15.07;;;3.80;99.90;;;;;;5028348;28;20049;-60
2023/11/26 05:16:14;;;;;;;41.42;16.63;;;3.90;99.90;;;;;;5030939;28;20384;-59
2023/11/26 05:18:40;;;;;;;43.75;17.02;;;4.00;99.90;;;;;;5031964;28;20018;-62
2023/11/26 05:21:06;;;;;;;55.92;20.33;;;4.00;99.90;;;;;;5030397;28;20488;-60
2023/11/26 05:23:33;;;;;;;47.95;16.60;;;4.20;99.90;;;;;;5031369;28;20480;-60
2023/11/26 05:25:59;;;;;;;57.50;19.63;;;4.20;99.90;;;;;;5026791;28;20026;-61
2023/11/26 05:28:25;;;;;;;53.92;19.27;;;4.20;99.90;;;;;;5030502;28;20125;-61
2023/11/26 05:30:50;;;;;;;53.28;19.02;;;4.20;99.90;;;;;;5030811;28;20096;-61
2023/11/26 05:33:16;;;;;;;56.65;18.55;;;4.30;99.90;;;;;;5030286;28;20037;-61
2023/11/26 05:35:41;;;;;;;62.58;21.20;;;4.30;99.90;;;;;;5028408;28;20048;-59
2023/11/26 05:38:07;;;;;;;45.70;18.25;;;4.40;99.90;;;;;;5026072;28;20063;-58
2023/11/26 05:40:32;;;;;;;54.45;20.67;;;4.40;99.90;;;;;;5031088;28;20036;-61
2023/11/26 05:42:58;;;;;;;54.22;19.73;;;4.50;99.90;;;;;;5029903;28;20026;-60
2023/11/26 05:45:24;;;;;;;67.45;20.80;;;4.60;99.90;;;;;;5029762;28;20552;-60
2023/11/26 05:47:49;;;;;;;69.28;21.13;;;4.60;99.90;;;;;;5030623;28;20032;-60
2023/11/26 05:50:15;;;;;;;66.15;22.08;;;4.60;99.90;;;;;;5030858;28;20053;-60
2023/11/26 05:52:41;;;;;;;64.30;22.70;;;4.70;99.90;;;;;;5031024;28;20444;-61
2023/11/26 05:55:08;;;;;;;56.78;22.77;;;4.80;99.90;;;;;;5031237;28;20025;-61
2023/11/26 05:57:34;;;;;;;61.83;20.85;;;4.80;99.90;;;;;;5028806;28;20022;-60
2023/11/26 06:00:00;;;;;;;56.67;20.48;;;4.80;99.90;;;;;;5029322;28;20033;-60
2023/11/26 06:02:25;;;;;;;65.90;21.77;;;4.80;99.90;;;;;;5031466;28;20017;-61
2023/11/26 06:04:52;;;;;;;59.25;21.88;;;4.90;99.90;;;;;;5029795;28;20079;-61
2023/11/26 06:07:17;;;;;;;55.72;21.80;;;4.90;99.90;;;;;;5030593;28;20356;-62
2023/11/26 06:09:43;;;;;;;62.30;21.83;;;5.00;99.90;;;;;;5030197;28;20026;-61
2023/11/26 06:12:09;;;;;;;59.10;20.15;;;5.00;99.90;;;;;;5027843;28;20499;-61
2023/11/26 06:14:35;;;;;;;65.88;21.98;;;5.00;99.90;;;;;;5031004;28;20083;-62
2023/11/26 06:17:01;;;;;;;54.10;20.30;;;5.00;99.90;;;;;;5030444;28;20034;-60
2023/11/26 06:19:27;;;;;;;60.20;23.40;;;5.00;99.90;;;;;;5028030;28;20030;-61
2023/11/26 06:21:52;;;;;;;65.28;22.05;;;5.10;99.90;;;;;;5030698;28;20490;-61
2023/11/26 06:24:18;;;;;;;45.80;18.65;;;5.10;99.90;;;;;;5029169;28;20060;-60
2023/11/26 06:26:44;;;;;;;70.00;23.73;;;5.10;99.90;;;;;;5030735;28;20021;-58
2023/11/26 06:29:11;;;;;;;57.42;20.88;;;5.10;99.90;;;;;;5030223;28;20048;-58
2023/11/26 06:31:37;;;;;;;59.17;20.55;;;5.20;99.90;;;;;;5028744;28;20025;-59
2023/11/26 06:34:03;;;;;;;64.60;21.35;;;5.10;99.90;;;;;;5028456;28;20100;-59
2023/11/26 06:36:28;;;;;;;62.83;20.65;;;5.20;99.90;;;;;;5029929;28;20080;-60
2023/11/26 06:38:55;;;;;;;61.92;22.00;;;5.10;99.90;;;;;;5030415;28;20430;-59
2023/11/26 06:41:29;;;;;;;59.03;19.83;;;5.10;99.90;;;;;;5028801;28;20049;-61
2023/11/26 06:43:55;;;;;;;62.55;16.27;;;5.10;99.90;;;;;;5027807;28;20025;-60
2023/11/26 06:46:23;;;;;;;49.88;20.73;;;5.10;99.90;;;;;;5027039;28;20045;-60
2023/11/26 06:48:50;;;;;;;65.03;21.23;;;5.00;99.90;;;;;;5023031;28;20034;-61
2023/11/26 06:51:17;;;;;;;52.65;19.45;;;5.00;99.90;;;;;;5033437;28;20017;-60
2023/11/26 06:53:43;;;;;;;75.38;23.77;;;4.90;99.90;;;;;;5032293;28;20050;-57
2023/11/26 06:56:09;;;;;;;59.33;22.17;;;4.90;99.90;;;;;;5030791;28;20547;-61
2023/11/26 06:58:39;;;;;;;76.28;22.85;;;5.00;99.90;;;;;;5032492;28;21876;-59
2023/11/26 07:01:05;;;;;;;67.57;25.02;;;4.90;99.90;;;;;;5035609;28;20119;-61
2023/11/26 07:03:35;;;;;;;57.90;21.65;;;5.00;99.90;;;;;;5024836;28;20042;-61
2023/11/26 07:06:10;;;;;;;66.35;21.80;;;5.00;99.90;;;;;;5032960;28;20101;-62
2023/11/26 07:08:37;;;;;;;64.95;22.67;;;5.10;99.90;;;;;;5034071;28;20668;-61
2023/11/26 07:11:03;;;;;;;58.85;23.00;;;5.10;99.90;;;;;;5033285;28;20041;-60
2023/11/26 07:13:29;;;;;;;63.65;22.02;;;5.10;99.90;;;;;;5026939;28;20033;-61
2023/11/26 07:15:55;;;;;;;65.90;22.17;;;5.10;99.90;;;;;;5031426;28;20033;-61
2023/11/26 07:18:20;;;;;;;55.15;23.23;;;5.10;99.90;;;;;;5035173;28;20040;-61
2023/11/26 07:20:46;;;;;;;55.22;21.70;;;5.20;99.90;;;;;;5033666;28;20025;-59
2023/11/26 07:23:13;;;;;;;68.47;24.10;;;5.20;99.90;;;;;;5035019;28;20364;-59
2023/11/26 07:25:39;;;;;;;55.45;23.92;;;5.20;99.90;;;;;;5029599;28;20025;-61
2023/11/26 07:28:08;;;;;;;57.95;21.48;;;5.20;99.90;;;;;;5032997;28;20025;-61
2023/11/26 07:30:34;;;;;;;62.35;22.38;;;5.20;99.90;;;;;;5031118;28;20051;-61
2023/11/26 07:33:00;;;;;;;60.60;23.60;;;5.20;99.90;;;;;;5035401;28;20018;-61
2023/11/26 07:35:25;;;;;;;53.50;21.05;;;5.20;99.90;;;;;;5035718;28;20025;-62
2023/11/26 07:37:51;;;;;;;55.63;20.13;;;5.30;99.90;;;;;;5030585;28;20057;-61
2023/11/26 07:40:16;;;;;;;52.45;20.85;;;5.30;99.90;;;;;;5031119;28;20029;-60
2023/11/26 07:42:42;;;;;;;56.40;21.30;;;5.30;99.90;;;;;;5026274;28;20061;-60
2023/11/26 07:45:08;;;;;;;52.45;20.27;;;5.30;99.90;;;;;;5026834;28;20468;-61
2023/11/26 07:47:34;;;;;;;76.32;24.40;;;5.30;99.90;;;;;;5028409;28;20067;-59
2023/11/26 07:49:59;;;;;;;51.08;21.45;;;5.30;99.90;;;;;;5037597;28;20444;-59
2023/11/26 07:52:25;;;;;;;63.60;20.73;;;5.30;99.90;;;;;;5031961;28;20083;-61
2023/11/26 07:54:50;;;;;;;56.53;20.13;;;5.40;99.90;;;;;;5031207;28;20454;-61
2023/11/26 07:57:16;;;;;;;55.33;19.70;;;5.40;99.90;;;;;;5030016;28;20033;-59
2023/11/26 07:59:44;;;;;;;52.17;19.83;;;5.50;99.90;;;;;;5035755;28;20395;-59
2023/11/26 08:02:13;;;;;;;57.72;22.88;;;5.50;99.90;;;;;;5025399;28;20021;-61
2023/11/26 08:04:39;;;;;;;50.40;20.95;;;5.50;99.90;;;;;;5035273;28;20087;-56
2023/11/26 08:07:05;;;;;;;63.15;21.00;;;5.50;99.90;;;;;;5028617;28;20030;-60
2023/11/26 08:09:32;;;;;;;51.60;20.27;;;5.50;99.90;;;;;;5040151;28;20025;-59
2023/11/26 08:12:00;;;;;;;54.53;21.00;;;5.50;99.90;;;;;;5028008;28;20104;-61
2023/11/26 08:14:27;;;;;;;57.92;21.75;;;5.60;99.90;;;;;;5034607;28;20025;-60
2023/11/26 08:16:54;;;;;;;50.72;20.42;;;5.60;99.90;;;;;;5030520;28;20480;-60
2023/11/26 08:19:23;;;;;;;56.17;20.90;;;5.70;99.90;;;;;;5037840;28;20026;-59
2023/11/26 08:21:49;;;;;;;53.75;21.85;;;5.70;99.90;;;;;;5030774;28;20744;-61
2023/11/26 08:24:18;;;;;;;60.00;21.35;;;5.80;99.90;;;;;;5027549;28;20116;-60
2023/11/26 08:26:46;;;;;;;53.70;21.42;;;5.80;99.90;;;;;;5022845;28;20675;-60
2023/11/26 08:29:18;;;;;;;54.17;21.52;;;5.90;99.90;;;;;;5034521;28;20045;-61
2023/11/26 08:31:48;;;;;;;59.83;21.67;;;5.90;99.90;;;;;;5029323;28;20029;-59
2023/11/26 08:34:15;;;;;;;49.67;19.38;;;5.90;99.90;;;;;;5034808;28;20094;-61
2023/11/26 08:36:42;;;;;;;56.85;19.90;;;5.90;99.90;;;;;;5032331;28;20492;-60
2023/11/26 08:39:14;;;;;;;55.20;21.67;;;6.00;99.90;;;;;;5029637;28;20030;-61
2023/11/26 08:41:42;;;;;;;53.30;20.08;;;6.00;99.90;;;;;;5033792;28;20378;-59
2023/11/26 08:44:09;;;;;;;58.63;20.27;;;6.00;99.90;;;;;;5033829;28;20438;-58
2023/11/26 08:46:36;;;;;;;43.08;18.73;;;6.00;99.90;;;;;;5037974;28;20041;-59
2023/11/26 08:49:03;;;;;;;47.85;18.98;;;6.10;99.90;;;;;;5030485;28;20032;-59
2023/11/26 08:51:32;;;;;;;52.63;20.05;;;6.20;99.90;;;;;;5024888;28;20112;-60
2023/11/26 08:53:59;;;;;;;54.35;20.17;;;6.20;99.90;;;;;;5027490;28;20025;-60
2023/11/26 08:56:25;;;;;;;52.33;19.08;;;6.20;99.90;;;;;;5031417;28;20034;-59
2023/11/26 08:58:51;;;;;;;48.65;19.23;;;6.30;99.90;;;;;;5028212;28;20028;-58
2023/11/26 09:01:17;;;;;;;49.30;19.10;;;6.20;99.90;;;;;;5031905;28;20025;-57
2023/11/26 09:03:43;;;;;;;52.55;19.75;;;6.30;99.90;;;;;;5028228;28;20025;-61
2023/11/26 09:06:09;;;;;;;51.67;18.20;;;6.30;99.90;;;;;;5030886;28;20031;-60
2023/11/26 09:08:35;;;;;;;51.75;18.67;;;6.40;99.90;;;;;;5027906;28;20033;-59
2023/11/26 09:11:00;;;;;;;61.13;22.55;;;6.40;99.90;;;;;;5027735;28;20073;-60
2023/11/26 09:13:29;;;;;;;44.80;18.27;;;6.40;99.90;;;;;;5028259;28;20040;-57
2023/11/26 09:15:55;;;;;;;44.80;19.95;;;6.40;99.90;;;;;;5032443;28;20036;-61
2023/11/26 09:18:21;;;;;;;47.58;18.92;;;6.50;99.90;;;;;;5030284;28;20032;-60
2023/11/26 09:20:48;;;;;;;50.67;17.85;;;6.50;99.90;;;;;;5035999;28;20423;-60
2023/11/26 09:23:14;;;;;;;58.40;18.75;;;6.60;99.90;;;;;;5030473;28;20472;-60
2023/11/26 09:25:39;;;;;;;48.97;18.70;;;6.70;99.90;;;;;;5029503;28;20075;-60
2023/11/26 09:28:05;;;;;;;50.88;18.60;;;6.70;99.90;;;;;;5033507;28;20037;-61
2023/11/26 09:30:31;;;;;;;48.45;18.73;;;6.80;99.90;;;;;;5030066;28;20061;-61
2023/11/26 09:32:57;;;;;;;48.50;18.05;;;6.80;99.90;;;;;;5029304;28;20033;-57
2023/11/26 09:35:22;;;;;;;44.17;19.60;;;6.80;99.90;;;;;;5029976;28;20023;-58
2023/11/26 09:37:48;;;;;;;41.92;18.27;;;6.80;99.90;;;;;;5029942;28;20120;-60
2023/11/26 09:40:14;;;;;;;58.75;20.45;;;6.80;99.90;;;;;;5031006;28;20029;-59
2023/11/26 09:42:44;;;;;;;53.75;18.23;;;6.80;99.90;;;;;;5031608;28;20028;-59
2023/11/26 09:45:10;;;;;;;46.90;16.83;;;7.00;99.90;;;;;;5029553;28;20036;-59
2023/11/26 09:47:36;;;;;;;48.05;17.17;;;7.00;99.90;;;;;;5026657;28;20037;-60
2023/11/26 09:50:02;;;;;;;45.13;19.25;;;7.10;99.90;;;;;;5023078;28;20022;-59
2023/11/26 09:52:29;;;;;;;43.58;17.63;;;7.10;99.90;;;;;;5029104;28;20148;-61
2023/11/26 09:54:57;;;;;;;58.90;21.25;;;7.10;99.90;;;;;;5024432;28;20030;-59
2023/11/26 09:57:22;;;;;;;49.47;18.45;;;7.10;99.90;;;;;;5031930;28;20025;-58
2023/11/26 09:59:48;;;;;;;43.30;17.40;;;7.10;99.90;;;;;;5028911;28;20034;-59
2023/11/26 10:02:13;;;;;;;43.53;16.95;;;7.10;99.90;;;;;;5024689;28;20491;-60
2023/11/26 10:04:50;;;;;;;50.28;17.55;;;7.10;99.90;;;;;;5026798;28;20403;-60
2023/11/26 10:07:17;;;;;;;50.13;17.35;;;7.20;99.90;;;;;;5022916;28;20072;-60
2023/11/26 10:10:09;;;;;;;43.47;17.23;;;7.20;99.90;;;;;;5026974;28;20414;-60
2023/11/26 10:12:53;;;;;;;38.95;15.90;;;7.20;99.90;;;;;;5029233;28;20039;-61
2023/11/26 10:15:21;;;;;;;46.03;16.65;;;7.30;99.90;;;;;;5028990;28;20031;-60
2023/11/26 10:17:59;;;;;;;50.67;16.83;;;7.20;99.90;;;;;;5028498;28;20041;-60
2023/11/26 10:20:25;;;;;;;48.80;17.38;;;7.20;99.90;;;;;;5025878;28;20406;-61
2023/11/26 10:22:52;;;;;;;46.08;17.17;;;7.20;99.90;;;;;;5027678;28;20028;-60
2023/11/26 10:25:18;;;;;;;46.55;18.42;;;7.20;99.90;;;;;;5025016;28;20033;-60
2023/11/26 10:27:43;;;;;;;44.38;18.23;;;7.20;99.90;;;;;;5025060;28;20496;-59
2023/11/26 10:30:22;;;;;;;43.78;18.33;;;7.10;99.90;;;;;;5026132;28;20037;-59
2023/11/26 10:33:01;;;;;;;40.40;15.60;;;7.20;99.90;;;;;;5027757;28;20029;-60
2023/11/26 10:35:50;;;;;;;36.33;15.57;;;7.20;99.90;;;;;;5026883;28;20033;-60
2023/11/26 10:38:20;;;;;;;31.10;14.90;;;7.30;99.90;;;;;;5028572;28;20039;-61
2023/11/26 10:40:46;;;;;;;40.72;15.48;;;7.30;99.90;;;;;;5035305;28;20030;-61
2023/11/26 10:43:12;;;;;;;36.72;15.93;;;7.30;99.90;;;;;;5029333;28;20024;-57
2023/11/26 10:45:39;;;;;;;40.13;15.88;;;7.30;99.90;;;;;;5031052;28;20121;-56
2023/11/26 10:48:14;;;;;;;32.13;14.90;;;7.40;99.90;;;;;;5027812;28;20534;-56
2023/11/26 10:50:44;;;;;;;39.25;15.85;;;7.30;99.90;;;;;;5021540;28;20039;-54
2023/11/26 10:53:18;;;;;;;31.55;13.73;;;7.40;99.90;;;;;;5026530;28;20021;-56
2023/11/26 10:55:47;;;;;;;;;;;7.40;99.90;;;;;;5028237;28;20549;-54
2023/11/26 10:58:17;;;;;;;29.25;13.25;;;7.40;99.90;;;;;;5026783;28;20055;-58
2023/11/26 11:00:52;;;;;;;28.23;14.52;;;7.50;99.90;;;;;;5022896;28;20026;-56
2023/11/26 11:03:18;;;;;;;38.53;15.35;;;7.50;99.90;;;;;;5021891;28;20178;-58
2023/11/26 11:05:47;;;;;;;30.20;14.50;;;7.50;99.90;;;;;;5023076;28;20029;-58
2023/11/26 11:08:14;;;;;;;27.30;13.32;;;7.60;99.90;;;;;;5023687;28;20018;-58
2023/11/26 11:11:04;;;;;;;30.35;13.10;;;7.50;99.90;;;;;;5024192;28;20113;-58
2023/11/26 11:13:32;;;;;;;29.98;15.52;;;7.60;99.90;;;;;;5032097;28;20030;-57
2023/11/26 11:15:58;;;;;;;26.23;14.00;;;7.50;99.90;;;;;;5025402;28;20025;-58
2023/11/26 11:18:26;;;;;;;34.25;15.13;;;7.50;99.90;;;;;;5030944;28;20442;-56
2023/11/26 11:21:09;;;;;;;27.55;14.43;;;7.50;99.90;;;;;;5027512;28;20029;-56
2023/11/26 11:23:36;;;;;;;35.80;15.23;;;7.50;99.90;;;;;;5029891;28;20037;-57
2023/11/26 11:26:02;;;;;;;33.63;15.38;;;7.50;99.90;;;;;;5027404;28;20036;-57
2023/11/26 11:29:00;;;;;;;32.40;15.25;;;7.50;99.90;;;;;;5024376;28;20427;-57
2023/11/26 11:31:58;;;;;;;29.25;15.27;;;7.50;99.90;;;;;;5022139;28;20034;-57
2023/11/26 11:34:24;;;;;;;32.53;17.05;;;7.50;99.90;;;;;;5026783;28;20043;-55
2023/11/26 11:36:51;;;;;;;39.10;14.75;;;7.50;99.90;;;;;;5025189;28;20436;-58
2023/11/26 11:39:24;;;;;;;32.35;14.80;;;7.40;99.90;;;;;;5027522;28;20025;-55
2023/11/26 11:41:56;;;;;;;35.50;14.75;;;7.50;99.90;;;;;;5017773;28;20033;-57
2023/11/26 11:44:32;;;;;;;34.33;13.52;;;7.50;99.90;;;;;;5027808;28;20076;-54
2023/11/26 11:46:59;;;;;;;36.00;13.85;;;7.50;99.90;;;;;;5035448;28;20296;-55
2023/11/26 11:49:32;;;;;;;27.75;13.95;;;7.50;99.90;;;;;;5027449;28;20087;-58
2023/11/26 11:51:59;;;;;;;30.38;13.38;;;7.50;99.90;;;;;;5026888;28;20164;-56
2023/11/26 11:54:37;;;;;;;27.90;12.75;;;7.60;99.90;;;;;;5023184;28;20420;-58
2023/11/26 11:57:03;;;;;;;27.05;12.30;;;7.50;99.90;;;;;;5020365;28;20032;-58
2023/11/26 11:59:29;;;;;;;30.92;11.80;;;7.60;99.90;;;;;;5031930;28;20514;-59
2023/11/26 12:01:57;;;;;;;24.13;11.95;;;7.50;99.90;;;;;;5027289;28;20416;-59
2023/11/26 12:04:44;;;;;;;25.60;11.40;;;7.60;99.90;;;;;;5023280;28;20030;-58
2023/11/26 12:07:10;;;;;;;23.13;12.25;;;7.70;99.90;;;;;;5029860;28;20093;-59
2023/11/26 12:09:40;;;;;;;33.05;13.00;;;7.60;99.90;;;;;;5028658;28;20108;-57
2023/11/26 12:12:10;;;;;;;25.63;12.30;;;7.60;99.90;;;;;;5032505;28;20042;-58
2023/11/26 12:14:36;;;;;;;34.10;13.52;;;7.60;99.90;;;;;;5030563;28;20496;-55
2023/11/26 12:17:07;;;;;;;24.13;11.50;;;7.60;99.90;;;;;;5033099;28;20124;-57
2023/11/26 12:19:42;;;;;;;27.58;13.25;;;7.70;99.90;;;;;;5035353;28;20487;-58
2023/11/26 12:22:10;;;;;;;27.20;13.52;;;7.70;99.90;;;;;;5028910;28;20103;-56
2023/11/26 12:24:37;;;;;;;32.17;14.75;;;7.70;99.90;;;;;;5026923;28;20033;-56
2023/11/26 12:27:03;;;;;;;22.63;12.52;;;7.70;99.90;;;;;;5035427;28;20385;-58
2023/11/26 12:29:35;;;;;;;27.85;11.98;;;7.60;99.90;;;;;;5026331;28;20566;-55
2023/11/26 12:32:06;;;;;;;32.72;12.40;;;7.60;99.90;;;;;;5030917;28;20108;-59
2023/11/26 12:34:39;;;;;;;29.33;12.88;;;7.60;99.90;;;;;;5035426;28;20041;-58
2023/11/26 12:37:10;;;;;;;31.08;12.60;;;7.60;99.90;;;;;;5033366;28;20038;-58
2023/11/26 12:39:38;;;;;;;33.28;12.05;;;7.60;99.90;;;;;;5029115;28;20087;-58
2023/11/26 12:42:04;;;;;;;25.52;11.55;;;7.60;99.90;;;;;;5025261;28;20025;-57
2023/11/26 12:44:33;;;;;;;25.98;13.25;;;7.60;99.90;;;;;;5031766;28;20017;-59
2023/11/26 12:47:11;;;;;;;22.63;10.80;;;7.60;99.90;;;;;;5028379;28;20026;-58